createdAt,value
2017-08-03T00:01:39.279Z,21.00
2017-08-03T00:04:07.355Z,21.00
2017-08-03T00:06:35.447Z,20.90
2017-08-03T00:09:03.538Z,20.90
2017-08-03T00:11:31.635Z,20.90
2017-08-03T00:13:59.713Z,20.90
2017-08-03T00:16:27.804Z,20.80
2017-08-03T00:18:55.904Z,21.00
2017-08-03T00:21:23.991Z,21.10
2017-08-03T00:23:52.071Z,20.90
2017-08-03T00:26:20.152Z,20.90
2017-08-03T00:28:48.245Z,21.10
2017-08-03T00:31:16.333Z,21.10
2017-08-03T00:33:44.424Z,21.10
2017-08-03T00:36:12.506Z,21.10
2017-08-03T00:38:40.612Z,21.00
2017-08-03T00:41:08.701Z,21.10
2017-08-03T00:43:36.798Z,21.00
2017-08-03T00:46:04.884Z,21.00
2017-08-03T00:48:32.978Z,21.00
2017-08-03T00:51:01.053Z,21.10
2017-08-03T00:53:29.144Z,20.90
2017-08-03T00:55:57.235Z,20.80
2017-08-03T00:58:25.333Z,20.80
2017-08-03T01:00:53.420Z,20.70
2017-08-03T01:03:21.520Z,20.60
2017-08-03T01:05:49.595Z,20.70
2017-08-03T01:08:17.679Z,20.70
2017-08-03T01:10:45.782Z,20.60
2017-08-03T01:13:13.871Z,20.50
2017-08-03T01:15:41.971Z,20.60
2017-08-03T01:18:10.067Z,20.70
2017-08-03T01:20:38.154Z,20.70
2017-08-03T01:23:06.250Z,20.70
2017-08-03T01:25:34.339Z,20.70
2017-08-03T01:28:02.423Z,20.80
2017-08-03T01:30:30.503Z,20.80
2017-08-03T01:32:58.586Z,20.80
2017-08-03T01:35:26.680Z,20.80
2017-08-03T01:37:54.770Z,20.80
2017-08-03T01:40:22.852Z,20.80
2017-08-03T01:42:50.940Z,20.80
2017-08-03T01:45:19.140Z,20.70
2017-08-03T01:47:47.231Z,20.60
2017-08-03T01:50:15.307Z,20.60
2017-08-03T01:52:43.399Z,20.50
2017-08-03T01:55:11.479Z,20.60
2017-08-03T01:57:39.575Z,20.60
2017-08-03T02:00:07.667Z,20.50
2017-08-03T02:02:35.755Z,20.40
2017-08-03T02:05:03.840Z,20.50
2017-08-03T02:07:31.927Z,20.40
2017-08-03T02:10:00.187Z,20.40
2017-08-03T02:12:28.301Z,20.30
2017-08-03T02:14:57.143Z,20.30
2017-08-03T02:17:25.226Z,20.20
2017-08-03T02:19:53.310Z,20.20
2017-08-03T02:22:21.395Z,20.20
2017-08-03T02:24:49.496Z,20.10
2017-08-03T02:27:17.578Z,20.10
2017-08-03T02:29:45.684Z,20.10
2017-08-03T02:32:13.770Z,20.00
2017-08-03T02:34:41.844Z,20.00
2017-08-03T02:37:09.930Z,19.80
2017-08-03T02:39:38.040Z,19.90
2017-08-03T02:42:06.127Z,19.90
2017-08-03T02:44:34.218Z,19.80
2017-08-03T02:47:02.300Z,19.50
2017-08-03T02:49:30.376Z,19.30
2017-08-03T02:51:58.472Z,19.00
2017-08-03T02:54:26.590Z,18.80
2017-08-03T02:56:54.745Z,19.30
2017-08-03T02:59:22.933Z,19.70
2017-08-03T03:01:51.020Z,19.80
2017-08-03T03:04:19.105Z,19.80
2017-08-03T03:06:47.195Z,19.80
2017-08-03T03:09:15.287Z,20.00
2017-08-03T03:11:43.376Z,20.10
2017-08-03T03:14:11.467Z,20.20
2017-08-03T03:16:39.578Z,20.20
2017-08-03T03:19:07.674Z,20.20
2017-08-03T03:21:35.763Z,20.30
2017-08-03T03:24:03.863Z,20.20
2017-08-03T03:26:31.919Z,20.20
2017-08-03T03:29:00.016Z,20.30
2017-08-03T03:31:28.121Z,20.20
2017-08-03T03:33:56.212Z,20.30
2017-08-03T03:36:24.303Z,20.30
2017-08-03T03:38:52.395Z,20.40
2017-08-03T03:41:20.475Z,20.30
2017-08-03T03:43:48.604Z,20.10
2017-08-03T03:46:16.683Z,20.20
2017-08-03T03:48:44.779Z,20.30
2017-08-03T03:51:12.877Z,20.30
2017-08-03T03:53:40.955Z,20.10
2017-08-03T03:56:09.035Z,20.20
2017-08-03T03:58:37.131Z,20.30
2017-08-03T04:01:05.227Z,20.30
2017-08-03T04:03:33.570Z,20.30
2017-08-03T04:06:01.837Z,20.30
2017-08-03T04:08:30.116Z,20.40
2017-08-03T04:10:58.203Z,20.30
2017-08-03T04:13:26.300Z,20.50
2017-08-03T04:15:54.392Z,20.50
2017-08-03T04:18:22.495Z,20.50
2017-08-03T04:20:50.575Z,20.60
2017-08-03T04:23:18.666Z,20.50
2017-08-03T04:25:46.759Z,20.60
2017-08-03T04:28:14.853Z,20.60
2017-08-03T04:30:43.150Z,20.70
2017-08-03T04:33:11.244Z,20.70
2017-08-03T04:35:39.450Z,20.80
2017-08-03T04:38:07.541Z,20.90
2017-08-03T04:40:35.725Z,20.90
2017-08-03T04:43:03.812Z,21.00
2017-08-03T04:45:31.907Z,21.00
2017-08-03T04:47:59.994Z,21.10
2017-08-03T04:50:28.095Z,21.00
2017-08-03T04:52:56.175Z,21.10
2017-08-03T04:55:24.263Z,21.10
2017-08-03T04:57:52.349Z,21.10
2017-08-03T05:00:20.450Z,21.10
2017-08-03T05:02:48.534Z,21.10
2017-08-03T05:05:16.623Z,21.00
2017-08-03T05:07:44.708Z,21.00
2017-08-03T05:10:12.800Z,20.90
2017-08-03T05:12:40.880Z,20.90
2017-08-03T05:15:08.983Z,20.90
2017-08-03T05:17:37.299Z,21.00
2017-08-03T05:20:05.575Z,20.90
2017-08-03T05:22:33.851Z,20.90
2017-08-03T05:25:01.936Z,20.70
2017-08-03T05:27:30.200Z,20.70
2017-08-03T05:29:58.275Z,20.80
2017-08-03T05:32:26.372Z,21.00
2017-08-03T05:34:54.452Z,21.10
2017-08-03T05:37:22.547Z,21.30
2017-08-03T05:39:50.628Z,21.00
2017-08-03T05:42:18.715Z,21.10
2017-08-03T05:44:46.843Z,21.00
2017-08-03T05:47:15.462Z,21.10
2017-08-03T05:49:43.648Z,21.10
2017-08-03T05:52:11.735Z,21.10
2017-08-03T05:54:39.835Z,21.20
2017-08-03T05:57:07.924Z,21.10
2017-08-03T05:59:35.994Z,21.10
2017-08-03T06:02:04.120Z,21.20
2017-08-03T06:04:32.207Z,21.20
2017-08-03T06:07:00.296Z,21.30
2017-08-03T06:09:28.397Z,21.20
2017-08-03T06:11:56.488Z,21.10
2017-08-03T06:14:24.568Z,21.20
2017-08-03T06:16:52.654Z,21.30
2017-08-03T06:19:20.746Z,21.30
2017-08-03T06:21:48.827Z,21.40
2017-08-03T06:24:16.922Z,21.40
2017-08-03T06:26:45.012Z,21.50
2017-08-03T06:29:13.088Z,21.50
2017-08-03T06:31:41.185Z,21.60
2017-08-03T06:34:09.284Z,21.70
2017-08-03T06:36:37.360Z,21.70
2017-08-03T06:39:05.442Z,21.80
2017-08-03T06:41:33.551Z,22.00
2017-08-03T06:44:01.647Z,22.00
2017-08-03T06:46:29.769Z,22.00
2017-08-03T06:48:57.855Z,22.10
2017-08-03T06:51:25.939Z,22.20
2017-08-03T06:53:54.038Z,22.30
2017-08-03T06:56:22.123Z,22.50
2017-08-03T06:58:50.227Z,22.60
2017-08-03T07:01:18.307Z,22.80
2017-08-03T07:03:46.408Z,23.00
2017-08-03T07:06:14.493Z,22.90
2017-08-03T07:08:42.593Z,23.00
2017-08-03T07:11:10.675Z,22.90
2017-08-03T07:13:38.791Z,22.60
2017-08-03T07:16:06.878Z,22.60
2017-08-03T07:18:35.207Z,22.70
2017-08-03T07:21:03.294Z,22.60
2017-08-03T07:23:31.376Z,22.80
2017-08-03T07:25:59.472Z,22.80
2017-08-03T07:28:27.550Z,22.60
2017-08-03T07:30:55.643Z,22.00
2017-08-03T07:33:23.735Z,21.60
2017-08-03T07:35:51.827Z,21.90
2017-08-03T07:38:19.923Z,22.00
2017-08-03T07:40:48.014Z,21.90
2017-08-03T07:43:16.111Z,21.50
2017-08-03T07:45:44.195Z,21.60
2017-08-03T07:48:12.300Z,21.80
2017-08-03T07:50:40.391Z,22.00
2017-08-03T07:53:08.481Z,22.00
2017-08-03T07:55:36.564Z,22.00
2017-08-03T07:58:04.649Z,22.00
2017-08-03T08:00:32.755Z,21.80
2017-08-03T08:03:00.840Z,21.50
2017-08-03T08:05:28.943Z,21.70
2017-08-03T08:07:57.015Z,21.80
2017-08-03T08:10:25.174Z,21.70
2017-08-03T08:12:53.256Z,21.50
2017-08-03T08:15:21.423Z,21.60
2017-08-03T08:17:49.584Z,21.70
2017-08-03T08:20:18.592Z,21.80
2017-08-03T08:22:46.678Z,21.70
2017-08-03T08:25:14.796Z,21.20
2017-08-03T08:27:42.929Z,21.20
2017-08-03T08:30:11.042Z,21.10
2017-08-03T08:32:39.134Z,21.30
2017-08-03T08:35:07.249Z,21.40
2017-08-03T08:37:35.363Z,21.40
2017-08-03T08:40:03.513Z,21.50
2017-08-03T08:42:31.607Z,21.30
2017-08-03T08:44:59.706Z,21.20
2017-08-03T08:47:27.792Z,21.00
2017-08-03T08:49:55.891Z,21.00
2017-08-03T08:52:24.708Z,21.00
2017-08-03T08:54:52.791Z,20.90
2017-08-03T08:57:20.890Z,21.00
2017-08-03T08:59:49.008Z,21.20
2017-08-03T09:02:17.103Z,21.00
2017-08-03T09:04:45.198Z,20.90
2017-08-03T09:07:13.291Z,21.10
2017-08-03T09:09:41.421Z,21.20
2017-08-03T09:12:09.511Z,21.20
2017-08-03T09:14:37.626Z,21.30
2017-08-03T09:17:05.732Z,21.40
2017-08-03T09:19:33.828Z,21.40
2017-08-03T09:22:01.916Z,21.40
2017-08-03T09:24:30.003Z,21.20
2017-08-03T09:26:58.087Z,21.20
2017-08-03T09:29:26.399Z,21.10
2017-08-03T09:31:54.485Z,21.10
2017-08-03T09:34:22.576Z,21.10
2017-08-03T09:36:50.666Z,21.00
2017-08-03T09:39:18.760Z,21.00
2017-08-03T09:41:46.836Z,21.10
2017-08-03T09:44:14.929Z,21.20
2017-08-03T09:46:43.019Z,21.30
2017-08-03T09:49:11.106Z,21.30
2017-08-03T09:51:39.201Z,21.20
2017-08-03T09:54:07.307Z,21.30
2017-08-03T09:56:35.382Z,21.30
2017-08-03T09:59:03.483Z,21.40
2017-08-03T10:01:31.574Z,21.40
2017-08-03T10:03:59.679Z,21.50
2017-08-03T10:06:27.761Z,21.50
2017-08-03T10:08:55.847Z,21.60
2017-08-03T10:11:23.934Z,21.70
2017-08-03T10:13:52.038Z,21.70
2017-08-03T10:16:20.133Z,21.80
2017-08-03T10:18:48.275Z,21.90
2017-08-03T10:21:16.387Z,22.00
2017-08-03T10:23:44.481Z,22.20
2017-08-03T10:26:12.596Z,22.50
2017-08-03T10:28:40.697Z,22.90
2017-08-03T10:31:08.775Z,23.30
2017-08-03T10:33:36.863Z,23.40
2017-08-03T10:36:04.975Z,23.20
2017-08-03T10:38:33.060Z,23.20
2017-08-03T10:41:01.155Z,23.30
2017-08-03T10:43:29.247Z,23.50
2017-08-03T10:45:57.340Z,23.40
2017-08-03T10:48:25.415Z,23.60
2017-08-03T10:50:53.513Z,23.50
2017-08-03T10:53:21.621Z,23.50
2017-08-03T10:55:49.714Z,23.50
2017-08-03T10:58:17.800Z,23.50
2017-08-03T11:00:45.903Z,23.60
2017-08-03T11:03:13.997Z,23.60
2017-08-03T11:05:42.089Z,23.70
2017-08-03T11:08:10.179Z,23.90
2017-08-03T11:10:38.274Z,23.90
2017-08-03T11:13:06.365Z,24.00
2017-08-03T11:15:34.455Z,24.20
2017-08-03T11:18:02.535Z,24.10
2017-08-03T11:20:30.617Z,24.30
2017-08-03T11:22:58.704Z,24.30
2017-08-03T11:25:26.789Z,24.60
2017-08-03T11:27:54.888Z,24.80
2017-08-03T11:30:22.967Z,24.60
2017-08-03T11:32:51.061Z,24.90
2017-08-03T11:35:19.136Z,25.40
2017-08-03T11:37:47.229Z,25.80
2017-08-03T11:40:15.324Z,25.50
2017-08-03T11:42:43.410Z,25.20
2017-08-03T11:45:11.493Z,25.40
2017-08-03T11:47:39.580Z,25.30
2017-08-03T11:50:07.671Z,25.70
2017-08-03T11:52:35.767Z,25.50
2017-08-03T11:55:03.856Z,25.50
2017-08-03T11:57:31.948Z,25.30
2017-08-03T12:00:00.019Z,25.50
2017-08-03T12:02:28.129Z,25.40
2017-08-03T12:04:56.199Z,25.80
2017-08-03T12:07:24.286Z,25.60
2017-08-03T12:09:52.375Z,25.70
2017-08-03T12:12:20.472Z,25.80
2017-08-03T12:14:48.557Z,26.40
2017-08-03T12:17:16.653Z,26.30
2017-08-03T12:19:44.743Z,26.20
2017-08-03T12:22:12.839Z,26.30
2017-08-03T12:24:40.919Z,26.20
2017-08-03T12:27:09.015Z,26.30
2017-08-03T12:29:37.098Z,26.40
2017-08-03T12:32:05.179Z,26.30
2017-08-03T12:34:33.279Z,25.90
2017-08-03T12:37:01.354Z,25.90
2017-08-03T12:39:29.449Z,25.90
2017-08-03T12:41:57.526Z,26.00
2017-08-03T12:44:25.621Z,25.90
2017-08-03T12:46:53.704Z,25.90
2017-08-03T12:49:21.813Z,25.90
2017-08-03T12:51:49.908Z,26.00
2017-08-03T12:54:17.996Z,26.00
2017-08-03T12:56:46.075Z,25.90
2017-08-03T12:59:14.186Z,25.90
2017-08-03T13:01:42.267Z,26.10
2017-08-03T13:04:10.372Z,26.30
2017-08-03T13:06:38.453Z,26.40
2017-08-03T13:09:06.535Z,26.30
2017-08-03T13:11:34.636Z,26.40
2017-08-03T13:14:02.737Z,26.60
2017-08-03T13:16:30.820Z,26.70
2017-08-03T13:18:58.903Z,26.70
2017-08-03T13:21:26.988Z,26.50
2017-08-03T13:23:55.072Z,26.30
2017-08-03T13:26:23.170Z,26.40
2017-08-03T13:28:51.269Z,26.60
2017-08-03T13:31:20.255Z,26.50
2017-08-03T13:33:48.341Z,26.50
2017-08-03T13:36:16.426Z,26.50
2017-08-03T13:38:44.501Z,26.70
2017-08-03T13:41:12.603Z,26.80
2017-08-03T13:43:40.709Z,27.10
2017-08-03T13:46:09.004Z,27.40
2017-08-03T13:48:37.069Z,27.10
2017-08-03T13:51:05.152Z,27.10
2017-08-03T13:53:33.241Z,27.60
2017-08-03T13:56:01.321Z,27.60
2017-08-03T13:58:29.404Z,27.60
2017-08-03T14:00:57.489Z,27.90
2017-08-03T14:03:25.583Z,27.80
2017-08-03T14:05:53.663Z,27.60
2017-08-03T14:08:21.750Z,27.50
2017-08-03T14:10:49.851Z,27.70
2017-08-03T14:13:17.926Z,27.40
2017-08-03T14:15:46.028Z,27.40
2017-08-03T14:18:14.122Z,27.30
2017-08-03T14:20:42.203Z,27.00
2017-08-03T14:23:10.275Z,26.90
2017-08-03T14:25:38.372Z,26.90
2017-08-03T14:28:06.457Z,26.70
2017-08-03T14:30:34.556Z,26.80
2017-08-03T14:33:02.635Z,26.60
2017-08-03T14:35:30.938Z,26.80
2017-08-03T14:37:59.023Z,26.80
2017-08-03T14:40:27.104Z,26.70
2017-08-03T14:42:55.190Z,26.70
2017-08-03T14:45:23.263Z,26.70
2017-08-03T14:47:51.349Z,26.60
2017-08-03T14:50:19.427Z,26.30
2017-08-03T14:52:47.507Z,26.60
2017-08-03T14:55:15.589Z,26.50
2017-08-03T14:57:43.690Z,26.40
2017-08-03T15:00:11.771Z,26.70
2017-08-03T15:02:39.851Z,26.90
2017-08-03T15:05:07.939Z,27.30
2017-08-03T15:07:36.023Z,27.30
2017-08-03T15:10:04.146Z,27.50
2017-08-03T15:12:32.224Z,27.80
2017-08-03T15:15:00.312Z,27.70
2017-08-03T15:17:28.405Z,27.60
2017-08-03T15:19:56.478Z,27.40
2017-08-03T15:22:24.779Z,27.50
2017-08-03T15:24:52.868Z,27.30
2017-08-03T15:27:20.953Z,27.30
2017-08-03T15:29:49.039Z,27.20
2017-08-03T15:32:17.116Z,27.20
2017-08-03T15:34:45.200Z,27.10
2017-08-03T15:37:13.287Z,27.00
2017-08-03T15:39:41.360Z,26.90
2017-08-03T15:42:09.460Z,26.70
2017-08-03T15:44:37.544Z,26.50
2017-08-03T15:47:05.634Z,26.40
2017-08-03T15:49:33.771Z,26.60
2017-08-03T15:52:01.860Z,26.40
2017-08-03T15:54:29.957Z,26.40
2017-08-03T15:56:58.048Z,26.60
2017-08-03T15:59:26.137Z,26.50
2017-08-03T16:01:54.215Z,26.20
2017-08-03T16:04:22.318Z,26.30
2017-08-03T16:06:50.406Z,26.30
2017-08-03T16:09:18.500Z,26.30
2017-08-03T16:11:46.619Z,26.30
2017-08-03T16:14:14.719Z,26.30
2017-08-03T16:16:42.815Z,26.10
2017-08-03T16:19:10.913Z,26.00
2017-08-03T16:21:39.007Z,26.00
2017-08-03T16:24:07.111Z,26.10
2017-08-03T16:26:35.191Z,26.00
2017-08-03T16:29:03.299Z,26.00
2017-08-03T16:31:31.397Z,26.20
2017-08-03T16:33:59.480Z,26.30
2017-08-03T16:36:27.570Z,26.20
2017-08-03T16:38:55.651Z,25.80
2017-08-03T16:41:23.764Z,25.50
2017-08-03T16:43:51.900Z,25.30
2017-08-03T16:46:20.041Z,25.00
2017-08-03T16:48:48.153Z,24.90
2017-08-03T16:51:16.246Z,25.00
2017-08-03T16:53:44.330Z,25.10
2017-08-03T16:56:12.429Z,25.10
2017-08-03T16:58:40.515Z,25.40
2017-08-03T17:01:08.607Z,25.40
2017-08-03T17:03:36.716Z,25.50
2017-08-03T17:06:04.817Z,25.60
2017-08-03T17:08:32.895Z,25.60
2017-08-03T17:11:00.971Z,25.50
2017-08-03T17:13:29.071Z,25.40
2017-08-03T17:15:57.156Z,25.40
2017-08-03T17:18:25.251Z,25.40
2017-08-03T17:20:53.332Z,25.40
2017-08-03T17:23:21.423Z,25.40
2017-08-03T17:25:49.572Z,25.40
2017-08-03T17:28:17.659Z,25.30
2017-08-03T17:30:45.735Z,25.20
2017-08-03T17:33:13.878Z,25.20
2017-08-03T17:35:41.942Z,25.30
2017-08-03T17:38:10.040Z,25.30
2017-08-03T17:40:38.216Z,25.30
2017-08-03T17:43:06.280Z,25.20
2017-08-03T17:45:34.385Z,25.10
2017-08-03T17:48:02.468Z,25.20
2017-08-03T17:50:30.563Z,25.20
2017-08-03T17:52:58.651Z,25.10
2017-08-03T17:55:27.656Z,25.10
2017-08-03T17:57:55.732Z,25.10
2017-08-03T18:00:23.835Z,25.10
2017-08-03T18:02:51.970Z,25.00
2017-08-03T18:05:20.064Z,25.00
2017-08-03T18:07:48.151Z,25.00
2017-08-03T18:10:16.297Z,25.00
2017-08-03T18:12:44.372Z,24.90
2017-08-03T18:15:12.459Z,24.80
2017-08-03T18:17:40.538Z,24.70
2017-08-03T18:20:08.630Z,24.70
2017-08-03T18:22:36.722Z,24.70
2017-08-03T18:25:04.808Z,24.60
2017-08-03T18:27:32.930Z,24.50
2017-08-03T18:30:01.003Z,24.50
2017-08-03T18:32:29.084Z,24.40
2017-08-03T18:34:57.168Z,24.40
2017-08-03T18:37:25.307Z,24.30
2017-08-03T18:40:12.616Z,24.30
2017-08-03T18:42:40.720Z,24.30
2017-08-03T18:45:08.870Z,24.30
2017-08-03T18:47:36.923Z,24.20
2017-08-03T18:50:05.018Z,24.20
2017-08-03T18:52:33.095Z,24.10
2017-08-03T18:55:01.199Z,24.10
2017-08-03T18:57:29.295Z,24.00
2017-08-03T18:59:57.398Z,23.90
2017-08-03T19:02:25.513Z,23.80
2017-08-03T19:04:53.654Z,23.80
2017-08-03T19:07:21.784Z,23.80
2017-08-03T19:09:49.870Z,23.80
2017-08-03T19:12:17.953Z,23.80
2017-08-03T19:14:46.116Z,23.70
2017-08-03T19:17:14.237Z,23.60
2017-08-03T19:19:42.365Z,23.50
2017-08-03T19:22:10.439Z,23.40
2017-08-03T19:24:38.510Z,23.40
2017-08-03T19:27:06.661Z,23.40
2017-08-03T19:29:34.727Z,23.30
2017-08-03T19:32:02.815Z,23.30
2017-08-03T19:34:30.907Z,23.20
2017-08-03T19:36:58.997Z,23.20
2017-08-03T19:39:27.083Z,23.20
2017-08-03T19:41:55.179Z,23.00
2017-08-03T19:44:23.259Z,22.90
2017-08-03T19:46:51.344Z,22.80
2017-08-03T19:49:19.427Z,22.80
2017-08-03T19:51:47.502Z,22.80
2017-08-03T19:54:15.597Z,22.70
2017-08-03T19:56:43.720Z,22.60
2017-08-03T19:59:11.799Z,22.60
2017-08-03T20:01:39.912Z,22.60
2017-08-03T20:04:08.151Z,22.40
2017-08-03T20:06:47.024Z,22.40
2017-08-03T20:09:17.891Z,22.30
2017-08-03T20:11:46.002Z,22.30
2017-08-03T20:14:14.124Z,22.20
2017-08-03T20:16:42.228Z,22.30
2017-08-03T20:19:10.318Z,22.30
2017-08-03T20:21:38.408Z,22.30
2017-08-03T20:24:06.556Z,22.30
2017-08-03T20:26:34.705Z,22.20
2017-08-03T20:29:02.777Z,22.20
2017-08-03T20:31:30.872Z,22.20
2017-08-03T20:33:59.300Z,22.20
2017-08-03T20:36:27.400Z,22.20
2017-08-03T20:38:55.483Z,22.10
2017-08-03T20:41:23.572Z,22.00
2017-08-03T20:43:51.751Z,22.00
2017-08-03T20:46:19.854Z,22.00
2017-08-03T20:48:47.943Z,21.90
2017-08-03T20:51:16.031Z,21.90
2017-08-03T20:53:44.120Z,21.90
2017-08-03T20:56:12.212Z,21.80
2017-08-03T20:58:40.303Z,21.80
2017-08-03T21:01:08.396Z,21.80
2017-08-03T21:03:36.522Z,21.80
2017-08-03T21:06:04.607Z,21.80
2017-08-03T21:08:32.690Z,21.90
2017-08-03T21:11:00.780Z,21.90
2017-08-03T21:13:28.912Z,21.90
2017-08-03T21:15:56.971Z,21.90
2017-08-03T21:18:25.068Z,22.00
2017-08-03T21:20:53.175Z,22.00
2017-08-03T21:23:21.273Z,21.90
2017-08-03T21:25:49.358Z,21.90
2017-08-03T21:28:17.450Z,21.80
2017-08-03T21:30:45.528Z,21.70
2017-08-03T21:33:13.608Z,21.70
2017-08-03T21:35:41.697Z,21.60
2017-08-03T21:38:09.778Z,21.60
2017-08-03T21:40:37.862Z,21.60
2017-08-03T21:43:05.999Z,21.50
2017-08-03T21:45:34.059Z,21.50
2017-08-03T21:48:02.140Z,21.50
2017-08-03T21:50:30.228Z,21.50
2017-08-03T21:52:58.316Z,21.50
2017-08-03T21:55:26.403Z,21.50
2017-08-03T21:57:54.475Z,21.50
2017-08-03T22:00:34.351Z,21.40
2017-08-03T22:03:02.420Z,21.40
2017-08-03T22:05:30.500Z,21.40
2017-08-03T22:07:58.596Z,21.30
2017-08-03T22:10:26.663Z,21.40
2017-08-03T22:12:54.752Z,21.40
2017-08-03T22:15:22.923Z,21.30
2017-08-03T22:17:51.154Z,21.20
2017-08-03T22:20:19.240Z,21.30
2017-08-03T22:22:47.322Z,21.20
2017-08-03T22:25:15.391Z,21.10
2017-08-03T22:27:43.492Z,20.90
2017-08-03T22:30:11.571Z,20.90
2017-08-03T22:32:39.654Z,20.90
2017-08-03T22:35:07.754Z,21.10
2017-08-03T22:37:35.846Z,21.10
2017-08-03T22:40:03.940Z,21.30
2017-08-03T22:42:32.036Z,21.30
2017-08-03T22:45:00.117Z,21.30
2017-08-03T22:47:28.208Z,21.10
2017-08-03T22:49:56.478Z,21.00
2017-08-03T22:52:24.638Z,21.00
2017-08-03T22:54:52.714Z,20.90
2017-08-03T22:57:20.967Z,20.80
2017-08-03T22:59:49.051Z,20.90
2017-08-03T23:02:17.228Z,21.00
2017-08-03T23:04:45.318Z,21.10
2017-08-03T23:07:13.430Z,20.90
2017-08-03T23:09:42.269Z,20.80
2017-08-03T23:12:10.359Z,20.90
2017-08-03T23:14:38.482Z,20.90
2017-08-03T23:17:06.576Z,21.10
2017-08-03T23:19:34.662Z,20.90
2017-08-03T23:22:02.764Z,20.80
2017-08-03T23:24:30.839Z,20.80
2017-08-03T23:26:58.959Z,21.00
2017-08-03T23:29:27.047Z,20.70
2017-08-03T23:31:58.131Z,20.70
2017-08-03T23:34:26.221Z,20.60
2017-08-03T23:36:54.299Z,20.60
2017-08-03T23:39:22.392Z,20.70
2017-08-03T23:41:50.463Z,20.70
2017-08-03T23:44:18.549Z,20.70
2017-08-03T23:46:46.615Z,20.70
2017-08-03T23:49:14.696Z,20.80
2017-08-03T23:51:42.767Z,20.80
2017-08-03T23:54:11.092Z,20.70
2017-08-03T23:56:39.172Z,20.80
2017-08-03T23:59:07.243Z,20.70
